createdAt,value
2022-12-29T00:00:01.529Z,41.4
2022-12-29T00:01:01.506Z,41.4
2022-12-29T00:02:01.791Z,41.4
2022-12-29T00:03:02.681Z,41.2
2022-12-29T00:04:01.690Z,41.0
2022-12-29T00:05:01.783Z,40.8
2022-12-29T00:06:01.386Z,40.6
2022-12-29T00:07:02.222Z,40.6
2022-12-29T00:08:01.748Z,40.6
2022-12-29T00:09:01.798Z,40.8
2022-12-29T00:10:01.900Z,40.8
2022-12-29T00:11:01.408Z,41.2
2022-12-29T00:12:03.318Z,41.0
2022-12-29T00:13:01.425Z,41.2
2022-12-29T00:14:02.528Z,41.2
2022-12-29T00:15:01.793Z,41.0
2022-12-29T00:16:01.428Z,41.0
2022-12-29T00:17:01.847Z,41.0
2022-12-29T00:18:01.640Z,40.8
2022-12-29T00:19:02.832Z,41.0
2022-12-29T00:20:01.461Z,41.4
2022-12-29T00:21:02.083Z,41.2
2022-12-29T00:22:01.788Z,41.2
2022-12-29T00:23:01.420Z,41.0
2022-12-29T00:24:01.760Z,40.8
2022-12-29T00:25:03.018Z,41.0
2022-12-29T00:26:04.504Z,40.8
2022-12-29T00:27:11.377Z,40.8
2022-12-29T00:28:06.619Z,40.8
2022-12-29T00:29:01.496Z,40.8
2022-12-29T00:30:01.748Z,40.8
2022-12-29T00:31:02.247Z,40.8
2022-12-29T00:32:01.391Z,40.8
2022-12-29T00:33:08.556Z,40.8
2022-12-29T00:34:01.778Z,41.0
2022-12-29T00:35:01.513Z,41.0
2022-12-29T00:36:05.131Z,41.0
2022-12-29T00:37:01.541Z,41.0
2022-12-29T00:38:06.244Z,41.0
2022-12-29T00:39:07.076Z,41.0
2022-12-29T00:40:01.797Z,41.0
2022-12-29T00:41:01.777Z,40.8
2022-12-29T00:42:04.311Z,40.8
2022-12-29T00:43:01.417Z,40.8
2022-12-29T00:44:01.793Z,41.0
2022-12-29T00:45:01.413Z,41.2
2022-12-29T00:46:01.793Z,41.2
2022-12-29T00:47:01.978Z,41.2
2022-12-29T00:48:01.546Z,41.0
2022-12-29T00:49:02.627Z,40.8
2022-12-29T00:50:01.438Z,40.8
2022-12-29T00:51:01.419Z,40.8
2022-12-29T00:52:04.119Z,41.0
2022-12-29T00:53:01.570Z,41.2
2022-12-29T00:54:01.512Z,41.2
2022-12-29T00:55:01.420Z,41.4
2022-12-29T00:56:01.812Z,41.4
2022-12-29T00:57:02.781Z,41.2
2022-12-29T00:58:01.730Z,41.2
2022-12-29T00:59:02.384Z,41.4
2022-12-29T01:00:01.786Z,41.4
2022-12-29T01:01:03.063Z,41.4
2022-12-29T01:02:01.477Z,41.4
2022-12-29T01:03:01.594Z,41.5
2022-12-29T01:04:03.993Z,41.4
2022-12-29T01:05:01.457Z,41.4
2022-12-29T01:06:01.974Z,41.2
2022-12-29T01:07:02.020Z,41.2
2022-12-29T01:08:01.752Z,41.0
2022-12-29T01:09:02.901Z,41.0
2022-12-29T01:10:01.410Z,41.0
2022-12-29T01:11:03.197Z,41.4
2022-12-29T01:12:01.450Z,41.4
2022-12-29T01:13:01.388Z,41.4
2022-12-29T01:14:01.816Z,41.2
2022-12-29T01:15:01.775Z,41.2
2022-12-29T01:16:02.221Z,41.2
2022-12-29T01:17:01.828Z,41.2
2022-12-29T01:18:01.794Z,41.2
2022-12-29T01:19:01.396Z,41.0
2022-12-29T01:20:02.322Z,41.0
2022-12-29T01:21:03.557Z,41.0
2022-12-29T01:22:02.052Z,41.2
2022-12-29T01:23:01.581Z,41.2
2022-12-29T01:24:02.281Z,41.2
2022-12-29T01:25:01.398Z,41.2
2022-12-29T01:26:09.705Z,41.4
2022-12-29T01:27:01.749Z,41.2
2022-12-29T01:28:01.391Z,41.2
2022-12-29T01:29:01.496Z,41.0
2022-12-29T01:30:01.438Z,41.0
2022-12-29T01:31:02.003Z,41.0
2022-12-29T01:32:01.827Z,41.0
2022-12-29T01:33:01.825Z,41.0
2022-12-29T01:34:02.474Z,41.0
2022-12-29T01:35:02.275Z,41.0
2022-12-29T01:36:01.848Z,41.2
2022-12-29T01:37:01.442Z,41.2
2022-12-29T01:38:01.821Z,41.2
2022-12-29T01:39:01.469Z,41.0
2022-12-29T01:40:01.420Z,41.0
2022-12-29T01:41:02.925Z,41.0
2022-12-29T01:42:01.590Z,41.2
2022-12-29T01:43:01.407Z,41.2
2022-12-29T01:44:01.426Z,41.2
2022-12-29T01:45:03.488Z,41.2
2022-12-29T01:46:02.008Z,41.2
2022-12-29T01:47:02.235Z,41.2
2022-12-29T01:48:05.327Z,41.2
2022-12-29T01:49:09.115Z,41.2
2022-12-29T01:50:07.020Z,41.0
2022-12-29T01:51:01.895Z,41.0
2022-12-29T01:52:06.006Z,40.8
2022-12-29T01:53:06.063Z,40.8
2022-12-29T01:54:05.530Z,40.8
2022-12-29T01:55:04.470Z,41.0
2022-12-29T01:56:07.872Z,41.0
2022-12-29T01:57:05.201Z,41.0
2022-12-29T01:58:05.421Z,41.0
2022-12-29T01:59:06.109Z,40.8
2022-12-29T02:00:06.568Z,40.8
2022-12-29T02:01:02.589Z,41.0
2022-12-29T02:02:02.983Z,41.2
2022-12-29T02:03:02.040Z,41.2
2022-12-29T02:04:02.499Z,41.0
2022-12-29T02:05:09.283Z,41.0
2022-12-29T02:06:07.431Z,41.0
2022-12-29T02:07:05.598Z,40.6
2022-12-29T02:08:02.194Z,40.6
2022-12-29T02:09:01.950Z,40.6
2022-12-29T02:10:02.842Z,40.6
2022-12-29T02:11:02.825Z,40.8
2022-12-29T02:12:02.363Z,40.6
2022-12-29T02:13:01.413Z,40.6
2022-12-29T02:14:03.740Z,40.5
2022-12-29T02:15:04.126Z,40.6
2022-12-29T02:16:11.868Z,40.6
2022-12-29T02:17:13.349Z,40.8
2022-12-29T02:18:18.918Z,40.8
2022-12-29T02:19:20.808Z,40.8
2022-12-29T02:20:20.831Z,40.5
2022-12-29T02:21:20.795Z,40.5
2022-12-29T02:22:14.873Z,40.6
2022-12-29T02:23:21.036Z,40.6
2022-12-29T02:24:21.142Z,40.5
2022-12-29T02:25:20.807Z,40.3
2022-12-29T02:26:20.807Z,40.1
2022-12-29T02:27:20.819Z,40.1
2022-12-29T02:28:20.812Z,40.5
2022-12-29T02:29:20.810Z,40.6
2022-12-29T02:30:16.931Z,40.5
2022-12-29T02:31:10.272Z,40.5
2022-12-29T02:32:06.187Z,40.3
2022-12-29T02:33:10.544Z,40.3
2022-12-29T02:34:15.375Z,40.5
2022-12-29T02:35:11.250Z,40.5
2022-12-29T02:36:13.016Z,40.6
2022-12-29T02:37:06.969Z,40.6
2022-12-29T02:38:15.196Z,40.5
2022-12-29T02:39:11.400Z,40.3
2022-12-29T02:40:09.827Z,40.3
2022-12-29T02:41:08.334Z,40.3
2022-12-29T02:42:09.235Z,40.3
2022-12-29T02:43:09.084Z,40.3
2022-12-29T02:44:12.025Z,40.3
2022-12-29T02:45:06.325Z,40.3
2022-12-29T02:46:11.690Z,40.1
2022-12-29T02:47:10.985Z,39.9
2022-12-29T02:48:08.273Z,39.7
2022-12-29T02:49:10.211Z,39.7
2022-12-29T02:50:06.955Z,39.9
2022-12-29T02:51:04.687Z,39.7
2022-12-29T02:52:05.743Z,39.7
2022-12-29T02:53:05.693Z,39.9
2022-12-29T02:54:01.907Z,40.1
2022-12-29T02:55:01.855Z,40.3
2022-12-29T02:56:01.406Z,40.1
2022-12-29T02:57:01.418Z,39.9
2022-12-29T02:58:16.045Z,39.9
2022-12-29T02:59:02.223Z,40.1
2022-12-29T03:00:06.390Z,40.3
2022-12-29T03:01:17.262Z,40.3
2022-12-29T03:02:20.886Z,40.3
2022-12-29T03:03:15.558Z,40.3
2022-12-29T03:04:13.342Z,40.5
2022-12-29T03:05:17.272Z,40.3
2022-12-29T03:06:19.289Z,40.1
2022-12-29T03:07:11.585Z,40.1
2022-12-29T03:08:11.045Z,40.1
2022-12-29T03:09:19.086Z,40.1
2022-12-29T03:10:10.093Z,40.1
2022-12-29T03:11:04.408Z,40.1
2022-12-29T03:12:14.203Z,39.9
2022-12-29T03:13:06.794Z,39.7
2022-12-29T03:14:08.660Z,39.7
2022-12-29T03:15:10.596Z,39.7
2022-12-29T03:16:11.269Z,39.6
2022-12-29T03:17:07.878Z,39.7
2022-12-29T03:18:10.512Z,39.6
2022-12-29T03:19:08.253Z,39.6
2022-12-29T03:20:07.423Z,39.6
2022-12-29T03:21:08.659Z,39.6
2022-12-29T03:22:05.920Z,39.4
2022-12-29T03:23:03.689Z,39.6
2022-12-29T03:24:02.919Z,39.7
2022-12-29T03:25:05.153Z,39.7
2022-12-29T03:26:07.061Z,39.6
2022-12-29T03:27:06.028Z,39.6
2022-12-29T03:28:07.257Z,39.6
2022-12-29T03:29:01.552Z,39.6
2022-12-29T03:30:05.051Z,39.7
2022-12-29T03:31:05.078Z,39.7
2022-12-29T03:32:04.916Z,39.6
2022-12-29T03:33:06.652Z,39.6
2022-12-29T03:34:03.223Z,39.4
2022-12-29T03:35:03.177Z,39.2
2022-12-29T03:36:05.168Z,39.2
2022-12-29T03:37:06.904Z,39.0
2022-12-29T03:38:08.475Z,39.0
2022-12-29T03:39:09.508Z,39.0
2022-12-29T03:40:02.276Z,39.0
2022-12-29T03:41:07.506Z,39.2
2022-12-29T03:42:06.081Z,39.2
2022-12-29T03:43:03.380Z,39.0
2022-12-29T03:44:01.544Z,39.2
2022-12-29T03:45:01.786Z,39.0
2022-12-29T03:46:01.808Z,39.0
2022-12-29T03:47:01.600Z,39.2
2022-12-29T03:48:01.747Z,39.2
2022-12-29T03:49:01.795Z,39.0
2022-12-29T03:50:01.428Z,39.0
2022-12-29T03:51:01.777Z,38.8
2022-12-29T03:52:02.241Z,38.8
2022-12-29T03:53:01.768Z,38.8
2022-12-29T03:54:02.799Z,38.8
2022-12-29T03:55:01.387Z,38.8
2022-12-29T03:56:01.434Z,38.8
2022-12-29T03:57:01.433Z,38.8
2022-12-29T03:58:01.478Z,38.8
2022-12-29T03:59:01.407Z,38.7
2022-12-29T04:00:02.995Z,38.7
2022-12-29T04:01:01.520Z,38.7
2022-12-29T04:02:01.655Z,38.7
2022-12-29T04:03:02.358Z,38.7
2022-12-29T04:04:01.403Z,38.8
2022-12-29T04:05:01.561Z,39.2
2022-12-29T04:06:01.768Z,39.2
2022-12-29T04:07:01.778Z,39.2
2022-12-29T04:08:01.831Z,39.0
2022-12-29T04:09:01.783Z,38.8
2022-12-29T04:10:01.437Z,38.8
2022-12-29T04:11:01.781Z,38.8
2022-12-29T04:12:01.402Z,38.8
2022-12-29T04:13:01.599Z,38.7
2022-12-29T04:14:01.816Z,38.8
2022-12-29T04:15:01.390Z,38.7
2022-12-29T04:16:02.315Z,38.8
2022-12-29T04:17:01.422Z,38.8
2022-12-29T04:18:01.411Z,38.8
2022-12-29T04:19:02.026Z,38.8
2022-12-29T04:20:01.406Z,38.8
2022-12-29T04:21:01.786Z,39.0
2022-12-29T04:22:01.415Z,39.0
2022-12-29T04:23:02.407Z,39.0
2022-12-29T04:24:01.833Z,38.8
2022-12-29T04:25:01.422Z,38.8
2022-12-29T04:26:02.124Z,39.0
2022-12-29T04:27:01.657Z,39.0
2022-12-29T04:28:02.102Z,38.8
2022-12-29T04:29:01.753Z,38.8
2022-12-29T04:30:01.422Z,38.8
2022-12-29T04:31:02.306Z,39.0
2022-12-29T04:32:01.422Z,39.0
2022-12-29T04:33:01.416Z,38.8
2022-12-29T04:34:01.930Z,38.8
2022-12-29T04:35:01.433Z,38.8
2022-12-29T04:36:01.957Z,38.8
2022-12-29T04:37:01.756Z,38.8
2022-12-29T04:38:02.068Z,39.0
2022-12-29T04:39:01.931Z,38.8
2022-12-29T04:40:01.807Z,38.8
2022-12-29T04:41:02.242Z,38.8
2022-12-29T04:42:01.406Z,39.0
2022-12-29T04:43:01.931Z,38.7
2022-12-29T04:44:01.975Z,38.7
2022-12-29T04:45:01.870Z,38.5
2022-12-29T04:46:01.523Z,38.8
2022-12-29T04:47:01.383Z,38.7
2022-12-29T04:48:01.781Z,38.7
2022-12-29T04:49:01.950Z,38.8
2022-12-29T04:50:01.870Z,38.8
2022-12-29T04:51:02.071Z,38.8
2022-12-29T04:52:01.735Z,38.7
2022-12-29T04:53:01.406Z,38.7
2022-12-29T04:54:01.440Z,38.7
2022-12-29T04:55:01.941Z,38.7
2022-12-29T04:56:01.454Z,38.7
2022-12-29T04:57:01.943Z,38.7
2022-12-29T04:58:01.950Z,38.7
2022-12-29T04:59:01.419Z,38.7
2022-12-29T05:00:02.805Z,38.5
2022-12-29T05:01:01.780Z,38.5
2022-12-29T05:02:01.911Z,38.7
2022-12-29T05:03:01.750Z,38.5
2022-12-29T05:04:01.797Z,38.5
2022-12-29T05:05:01.845Z,38.5
2022-12-29T05:06:01.770Z,38.3
2022-12-29T05:07:01.416Z,38.3
2022-12-29T05:08:01.415Z,38.3
2022-12-29T05:09:01.442Z,38.3
2022-12-29T05:10:01.875Z,38.1
2022-12-29T05:11:02.126Z,37.9
2022-12-29T05:12:01.781Z,37.9
2022-12-29T05:13:02.136Z,37.8
2022-12-29T05:14:01.410Z,37.9
2022-12-29T05:15:03.085Z,37.9
2022-12-29T05:16:01.491Z,37.9
2022-12-29T05:17:01.928Z,38.1
2022-12-29T05:18:01.767Z,38.1
2022-12-29T05:19:02.145Z,38.1
2022-12-29T05:20:02.356Z,38.1
2022-12-29T05:21:01.429Z,38.1
2022-12-29T05:22:02.121Z,38.1
2022-12-29T05:23:01.411Z,38.1
2022-12-29T05:24:01.436Z,37.9
2022-12-29T05:25:02.262Z,37.9
2022-12-29T05:26:01.437Z,37.8
2022-12-29T05:27:01.747Z,37.8
2022-12-29T05:28:01.392Z,37.9
2022-12-29T05:29:01.432Z,38.3
2022-12-29T05:30:01.881Z,38.5
2022-12-29T05:31:01.778Z,38.3
2022-12-29T05:32:02.146Z,38.3
2022-12-29T05:33:02.234Z,38.3
2022-12-29T05:34:01.786Z,38.5
2022-12-29T05:35:01.780Z,38.7
2022-12-29T05:36:04.925Z,38.8
2022-12-29T05:37:01.431Z,38.7
2022-12-29T05:38:01.781Z,38.7
2022-12-29T05:39:01.432Z,38.7
2022-12-29T05:40:01.414Z,38.8
2022-12-29T05:41:02.299Z,38.7
2022-12-29T05:42:01.411Z,38.7
2022-12-29T05:43:01.414Z,38.5
2022-12-29T05:44:02.357Z,38.5
2022-12-29T05:45:01.418Z,38.7
2022-12-29T05:46:02.183Z,38.5
2022-12-29T05:47:02.186Z,38.3
2022-12-29T05:48:01.424Z,38.1
2022-12-29T05:49:01.814Z,38.1
2022-12-29T05:50:01.732Z,38.1
2022-12-29T05:51:01.851Z,38.3
2022-12-29T05:52:01.878Z,38.3
2022-12-29T05:53:01.405Z,38.1
2022-12-29T05:54:01.458Z,37.9
2022-12-29T05:55:01.774Z,37.9
2022-12-29T05:56:01.442Z,37.9
2022-12-29T05:57:01.424Z,37.9
2022-12-29T05:58:01.416Z,37.9
2022-12-29T05:59:01.763Z,37.8
2022-12-29T06:00:01.648Z,37.8
2022-12-29T06:01:01.489Z,37.8
2022-12-29T06:02:02.260Z,37.8
2022-12-29T06:03:01.971Z,37.6
2022-12-29T06:04:01.836Z,37.6
2022-12-29T06:05:01.809Z,37.6
2022-12-29T06:06:02.133Z,37.6
2022-12-29T06:07:01.756Z,37.8
2022-12-29T06:08:01.413Z,37.9
2022-12-29T06:09:01.397Z,37.8
2022-12-29T06:10:01.789Z,37.6
2022-12-29T06:11:01.810Z,37.6
2022-12-29T06:12:01.751Z,37.4
2022-12-29T06:13:01.414Z,37.2
2022-12-29T06:14:01.923Z,37.0
2022-12-29T06:15:01.485Z,36.9
2022-12-29T06:16:01.922Z,36.9
2022-12-29T06:17:02.092Z,36.7
2022-12-29T06:18:01.417Z,36.5
2022-12-29T06:19:01.409Z,36.5
2022-12-29T06:20:01.450Z,36.5
2022-12-29T06:21:01.875Z,36.5
2022-12-29T06:22:01.770Z,36.9
2022-12-29T06:23:01.805Z,37.0
2022-12-29T06:24:01.778Z,36.9
2022-12-29T06:25:05.114Z,36.7
2022-12-29T06:26:01.382Z,36.5
2022-12-29T06:27:01.423Z,36.5
2022-12-29T06:28:02.483Z,36.5
2022-12-29T06:29:02.400Z,36.7
2022-12-29T06:30:01.393Z,36.5
2022-12-29T06:31:01.763Z,36.5
2022-12-29T06:32:01.463Z,36.1
2022-12-29T06:33:01.849Z,36.3
2022-12-29T06:34:07.929Z,36.1
2022-12-29T06:35:02.301Z,36.5
2022-12-29T06:36:02.068Z,36.5
2022-12-29T06:37:01.691Z,36.5
2022-12-29T06:38:01.734Z,36.5
2022-12-29T06:39:01.937Z,36.1
2022-12-29T06:40:01.432Z,36.1
2022-12-29T06:41:01.880Z,36.1
2022-12-29T06:42:02.055Z,36.1
2022-12-29T06:43:01.416Z,36.1
2022-12-29T06:44:01.449Z,36.1
2022-12-29T06:45:02.007Z,36.0
2022-12-29T06:46:01.906Z,36.0
2022-12-29T06:47:01.656Z,35.8
2022-12-29T06:48:01.440Z,35.8
2022-12-29T06:49:01.436Z,35.6
2022-12-29T06:50:03.062Z,35.6
2022-12-29T06:51:01.438Z,35.6
2022-12-29T06:52:01.445Z,35.6
2022-12-29T06:53:01.883Z,35.6
2022-12-29T06:54:01.783Z,35.6
2022-12-29T06:55:01.907Z,35.6
2022-12-29T06:56:01.759Z,35.6
2022-12-29T06:57:01.759Z,35.6
2022-12-29T06:58:01.411Z,35.4
2022-12-29T06:59:01.747Z,35.4
2022-12-29T07:00:01.652Z,35.4
2022-12-29T07:01:02.139Z,35.2
2022-12-29T07:02:01.949Z,35.2
2022-12-29T07:03:01.922Z,35.2
2022-12-29T07:04:01.589Z,35.2
2022-12-29T07:05:01.752Z,35.1
2022-12-29T07:06:02.003Z,35.1
2022-12-29T07:07:01.417Z,35.1
2022-12-29T07:08:01.884Z,35.1
2022-12-29T07:09:02.037Z,35.1
2022-12-29T07:10:02.413Z,35.1
2022-12-29T07:11:01.745Z,35.1
2022-12-29T07:12:02.168Z,34.9
2022-12-29T07:13:01.789Z,34.7
2022-12-29T07:14:04.588Z,34.7
2022-12-29T07:15:01.442Z,34.7
2022-12-29T07:16:06.283Z,34.7
2022-12-29T07:17:01.861Z,34.5
2022-12-29T07:18:01.765Z,34.5
2022-12-29T07:19:01.766Z,34.3
2022-12-29T07:20:01.906Z,34.3
2022-12-29T07:21:02.295Z,34.3
2022-12-29T07:22:01.743Z,34.2
2022-12-29T07:23:02.565Z,34.2
2022-12-29T07:24:01.437Z,34.2
2022-12-29T07:25:01.841Z,34.2
2022-12-29T07:26:03.191Z,34.2
2022-12-29T07:27:01.397Z,34.2
2022-12-29T07:28:01.503Z,34.2
2022-12-29T07:29:01.556Z,34.2
2022-12-29T07:30:01.432Z,34.2
2022-12-29T07:31:01.969Z,34.3
2022-12-29T07:32:01.499Z,34.3
2022-12-29T07:33:01.908Z,34.5
2022-12-29T07:34:01.629Z,34.5
2022-12-29T07:35:01.761Z,34.5
2022-12-29T07:36:01.762Z,34.5
2022-12-29T07:37:01.760Z,34.5
2022-12-29T07:38:01.755Z,34.5
2022-12-29T07:39:02.072Z,34.5
2022-12-29T07:40:02.057Z,34.5
2022-12-29T07:41:01.754Z,34.5
2022-12-29T07:42:05.037Z,34.5
2022-12-29T07:43:01.433Z,34.7
2022-12-29T07:44:01.447Z,34.5
2022-12-29T07:45:02.107Z,34.5
2022-12-29T07:46:01.838Z,34.5
2022-12-29T07:47:02.366Z,34.7
2022-12-29T07:48:01.935Z,34.7
2022-12-29T07:49:01.428Z,34.7
2022-12-29T07:50:01.428Z,34.7
2022-12-29T07:51:01.786Z,34.7
2022-12-29T07:52:01.794Z,34.7
2022-12-29T07:53:01.940Z,34.5
2022-12-29T07:54:01.410Z,34.3
2022-12-29T07:55:01.422Z,34.2
2022-12-29T07:56:02.056Z,34.0
2022-12-29T07:57:01.811Z,34.0
2022-12-29T07:58:01.427Z,33.8
2022-12-29T07:59:01.427Z,33.8
2022-12-29T08:00:01.704Z,33.8
2022-12-29T08:01:01.892Z,33.8
2022-12-29T08:02:02.077Z,33.8
2022-12-29T08:03:01.435Z,33.8
2022-12-29T08:04:01.897Z,33.8
2022-12-29T08:05:02.343Z,33.8
2022-12-29T08:06:01.429Z,33.8
2022-12-29T08:07:01.692Z,34.0
2022-12-29T08:08:01.748Z,34.0
2022-12-29T08:09:08.190Z,34.0
2022-12-29T08:10:01.455Z,34.0
2022-12-29T08:11:01.429Z,34.0
2022-12-29T08:12:01.748Z,34.2
2022-12-29T08:13:01.550Z,34.0
2022-12-29T08:14:01.389Z,34.0
2022-12-29T08:15:01.779Z,34.0
2022-12-29T08:16:01.427Z,33.8
2022-12-29T08:17:01.928Z,34.0
2022-12-29T08:18:03.010Z,34.0
2022-12-29T08:19:02.196Z,33.8
2022-12-29T08:20:02.721Z,33.8
2022-12-29T08:21:03.086Z,33.8
2022-12-29T08:22:01.510Z,33.6
2022-12-29T08:23:01.410Z,33.6
2022-12-29T08:24:01.773Z,33.6
2022-12-29T08:25:02.167Z,33.6
2022-12-29T08:26:03.951Z,33.6
2022-12-29T08:27:06.290Z,33.4
2022-12-29T08:28:01.503Z,33.6
2022-12-29T08:29:01.895Z,33.4
2022-12-29T08:30:02.043Z,33.8
2022-12-29T08:31:02.989Z,33.6
2022-12-29T08:32:01.391Z,33.6
2022-12-29T08:33:01.399Z,33.6
2022-12-29T08:34:01.785Z,33.8
2022-12-29T08:35:01.435Z,33.8
2022-12-29T08:36:03.795Z,33.8
2022-12-29T08:37:01.865Z,33.8
2022-12-29T08:38:01.750Z,33.6
2022-12-29T08:39:01.775Z,33.6
2022-12-29T08:40:02.601Z,33.4
2022-12-29T08:41:01.435Z,33.4
2022-12-29T08:42:02.001Z,33.4
2022-12-29T08:43:01.411Z,33.4
2022-12-29T08:44:02.343Z,33.3
2022-12-29T08:45:02.047Z,33.3
2022-12-29T08:46:02.012Z,33.3
2022-12-29T08:47:01.816Z,33.3
2022-12-29T08:48:02.015Z,33.1
2022-12-29T08:49:01.406Z,33.1
2022-12-29T08:50:01.806Z,33.1
2022-12-29T08:51:01.947Z,33.1
2022-12-29T08:52:02.090Z,33.1
2022-12-29T08:53:01.842Z,33.1
2022-12-29T08:54:01.864Z,33.1
2022-12-29T08:55:01.746Z,33.1
2022-12-29T08:56:05.041Z,33.1
2022-12-29T08:57:01.418Z,32.9
2022-12-29T08:58:01.788Z,33.1
2022-12-29T08:59:01.399Z,32.9
2022-12-29T09:00:01.725Z,33.1
2022-12-29T09:01:02.288Z,32.9
2022-12-29T09:02:02.161Z,32.9
2022-12-29T09:03:02.126Z,32.9
2022-12-29T09:04:14.994Z,32.9
2022-12-29T09:05:01.489Z,32.9
2022-12-29T09:06:01.828Z,32.9
2022-12-29T09:07:01.400Z,32.9
2022-12-29T09:08:01.414Z,33.1
2022-12-29T09:09:01.890Z,33.1
2022-12-29T09:10:01.467Z,33.1
2022-12-29T09:11:10.747Z,32.9
2022-12-29T09:12:01.417Z,32.9
2022-12-29T09:13:01.780Z,33.1
2022-12-29T09:14:01.773Z,33.3
2022-12-29T09:15:01.583Z,33.3
2022-12-29T09:16:02.117Z,33.3
2022-12-29T09:17:01.776Z,33.3
2022-12-29T09:18:01.986Z,33.3
2022-12-29T09:19:01.717Z,33.1
2022-12-29T09:20:01.735Z,33.1
2022-12-29T09:21:04.181Z,33.1
2022-12-29T09:22:01.774Z,32.7
2022-12-29T09:23:01.818Z,32.7
2022-12-29T09:24:01.673Z,32.7
2022-12-29T09:25:01.804Z,32.7
2022-12-29T09:26:03.384Z,32.7
2022-12-29T09:27:01.408Z,32.9
2022-12-29T09:28:01.758Z,32.9
2022-12-29T09:29:01.416Z,33.1
2022-12-29T09:30:01.827Z,32.9
2022-12-29T09:31:02.130Z,32.9
2022-12-29T09:32:01.759Z,33.1
2022-12-29T09:33:01.499Z,32.9
2022-12-29T09:34:01.418Z,32.9
2022-12-29T09:35:02.462Z,32.7
2022-12-29T09:36:02.570Z,32.7
2022-12-29T09:37:01.786Z,32.7
2022-12-29T09:38:01.771Z,32.7
2022-12-29T09:39:01.834Z,32.5
2022-12-29T09:40:01.802Z,32.7
2022-12-29T09:41:06.528Z,33.1
2022-12-29T09:42:09.112Z,33.3
2022-12-29T09:43:18.021Z,33.4
2022-12-29T09:44:13.226Z,33.8
2022-12-29T09:45:08.788Z,34.0
2022-12-29T09:46:11.625Z,34.7
2022-12-29T09:47:02.142Z,35.1
2022-12-29T09:48:09.568Z,35.4
2022-12-29T09:49:15.709Z,35.6
2022-12-29T09:50:09.441Z,36.0
2022-12-29T09:51:09.389Z,36.3
2022-12-29T09:52:06.527Z,36.3
2022-12-29T09:53:12.285Z,36.5
2022-12-29T09:54:14.361Z,36.7
2022-12-29T09:55:07.564Z,37.0
2022-12-29T09:56:02.573Z,37.0
2022-12-29T09:57:02.120Z,37.0
2022-12-29T09:58:06.149Z,36.9
2022-12-29T09:59:11.544Z,37.0
2022-12-29T10:00:07.043Z,37.0
2022-12-29T10:01:04.852Z,37.0
2022-12-29T10:02:16.468Z,36.9
2022-12-29T10:03:11.930Z,36.9
2022-12-29T10:04:02.309Z,36.9
2022-12-29T10:05:01.904Z,36.7
2022-12-29T10:06:11.808Z,36.7
2022-12-29T10:07:29.265Z,36.5
2022-12-29T10:08:17.801Z,36.5
2022-12-29T10:09:13.563Z,36.5
2022-12-29T10:10:15.456Z,36.5
2022-12-29T10:11:11.360Z,36.7
2022-12-29T10:12:12.171Z,36.7
2022-12-29T10:13:17.961Z,36.7
2022-12-29T10:14:17.842Z,36.5
2022-12-29T10:15:12.261Z,36.5
2022-12-29T10:16:09.644Z,36.3
2022-12-29T10:17:10.881Z,36.3
2022-12-29T10:18:18.432Z,36.1
2022-12-29T10:19:19.674Z,35.8
2022-12-29T10:20:18.976Z,35.6
2022-12-29T10:21:09.374Z,35.4
2022-12-29T10:22:14.646Z,35.2
2022-12-29T10:23:20.662Z,35.2
2022-12-29T10:24:04.880Z,35.2
2022-12-29T10:25:09.622Z,35.4
2022-12-29T10:26:04.015Z,35.2
2022-12-29T10:27:02.429Z,35.2
2022-12-29T10:28:10.609Z,35.2
2022-12-29T10:29:05.419Z,35.1
2022-12-29T10:30:03.155Z,34.9
2022-12-29T10:31:08.764Z,34.9
2022-12-29T10:32:06.656Z,34.9
2022-12-29T10:33:06.379Z,34.9
2022-12-29T10:34:08.255Z,34.9
2022-12-29T10:35:10.932Z,34.7
2022-12-29T10:36:12.251Z,34.7
2022-12-29T10:37:10.317Z,34.7
2022-12-29T10:38:12.390Z,34.7
2022-12-29T10:39:10.539Z,34.7
2022-12-29T10:40:12.849Z,34.7
2022-12-29T10:41:09.094Z,34.5
2022-12-29T10:42:09.431Z,34.3
2022-12-29T10:43:21.063Z,34.3
2022-12-29T10:44:01.882Z,34.3
2022-12-29T10:45:01.527Z,34.2
2022-12-29T10:46:06.103Z,34.2
2022-12-29T10:47:06.242Z,34.2
2022-12-29T10:48:09.311Z,34.2
2022-12-29T10:49:01.532Z,34.0
2022-12-29T10:50:02.357Z,34.0
2022-12-29T10:51:05.301Z,33.8
2022-12-29T10:52:04.108Z,33.8
2022-12-29T10:53:05.337Z,33.8
2022-12-29T10:54:06.751Z,33.6
2022-12-29T10:55:06.646Z,33.8
2022-12-29T10:56:04.497Z,33.8
2022-12-29T10:57:06.320Z,33.8
2022-12-29T10:58:05.186Z,33.8
2022-12-29T10:59:10.808Z,33.8
2022-12-29T11:00:09.205Z,34.0
2022-12-29T11:01:01.839Z,34.0
2022-12-29T11:02:20.954Z,33.8
2022-12-29T11:03:19.827Z,33.8
2022-12-29T11:04:08.723Z,33.8
2022-12-29T11:05:06.574Z,33.8
2022-12-29T11:06:09.201Z,33.8
2022-12-29T11:07:02.063Z,33.8
2022-12-29T11:08:05.035Z,34.0
2022-12-29T11:09:12.610Z,34.0
2022-12-29T11:10:20.416Z,34.0
2022-12-29T11:11:04.485Z,34.0
2022-12-29T11:12:19.707Z,34.0
2022-12-29T11:13:04.346Z,34.0
2022-12-29T11:14:12.820Z,33.8
2022-12-29T11:15:12.875Z,33.8
2022-12-29T11:16:02.001Z,33.8
2022-12-29T11:17:04.560Z,33.8
2022-12-29T11:18:01.433Z,33.8
2022-12-29T11:19:02.058Z,33.8
2022-12-29T11:20:20.804Z,33.8
2022-12-29T11:21:03.412Z,33.6
2022-12-29T11:22:13.533Z,33.6
2022-12-29T11:23:02.878Z,33.6
2022-12-29T11:24:04.464Z,33.6
2022-12-29T11:25:11.156Z,33.4
2022-12-29T11:26:08.581Z,33.4
2022-12-29T11:27:14.781Z,33.6
2022-12-29T11:28:12.652Z,33.4
2022-12-29T11:29:20.802Z,33.4
2022-12-29T11:30:01.489Z,33.3
2022-12-29T11:31:03.563Z,33.1
2022-12-29T11:32:12.251Z,32.9
2022-12-29T11:33:04.322Z,32.5
2022-12-29T11:34:06.362Z,32.5
2022-12-29T11:35:04.441Z,32.4
2022-12-29T11:36:06.829Z,32.4
2022-12-29T11:37:04.026Z,32.4
2022-12-29T11:38:04.299Z,32.4
2022-12-29T11:39:07.630Z,32.4
2022-12-29T11:40:05.320Z,32.2
2022-12-29T11:41:02.524Z,32.2
2022-12-29T11:42:03.381Z,32.2
2022-12-29T11:43:03.763Z,32.0
2022-12-29T11:44:05.858Z,32.0
2022-12-29T11:45:10.673Z,32.0
2022-12-29T11:46:02.534Z,31.8
2022-12-29T11:47:02.456Z,31.6
2022-12-29T11:48:08.275Z,31.6
2022-12-29T11:49:02.921Z,31.6
2022-12-29T11:50:05.408Z,31.5
2022-12-29T11:51:01.586Z,31.5
2022-12-29T11:52:01.848Z,31.5
2022-12-29T11:53:05.964Z,31.6
2022-12-29T11:54:04.723Z,31.6
2022-12-29T11:55:04.544Z,31.6
2022-12-29T11:56:05.144Z,31.6
2022-12-29T11:57:12.157Z,31.6
2022-12-29T11:58:04.298Z,31.6
2022-12-29T11:59:20.809Z,31.6
2022-12-29T12:00:12.847Z,31.6
2022-12-29T12:01:05.555Z,31.5
2022-12-29T12:02:13.495Z,31.5
2022-12-29T12:03:04.457Z,31.5
2022-12-29T12:04:07.385Z,31.5
2022-12-29T12:05:10.010Z,31.5
2022-12-29T12:06:03.063Z,31.5
2022-12-29T12:07:11.965Z,31.3
2022-12-29T12:08:10.081Z,31.5
2022-12-29T12:09:07.265Z,31.3
2022-12-29T12:10:07.900Z,31.3
2022-12-29T12:11:06.564Z,31.1
2022-12-29T12:12:03.730Z,31.1
2022-12-29T12:13:14.457Z,31.1
2022-12-29T12:14:07.341Z,31.1
2022-12-29T12:15:03.611Z,31.1
2022-12-29T12:16:08.217Z,30.9
2022-12-29T12:17:09.530Z,30.9
2022-12-29T12:18:09.853Z,30.9
2022-12-29T12:19:13.483Z,30.9
2022-12-29T12:20:14.632Z,31.1
2022-12-29T12:21:08.867Z,31.1
2022-12-29T12:22:11.088Z,31.1
2022-12-29T12:23:15.021Z,31.1
2022-12-29T12:24:17.798Z,30.9
2022-12-29T12:25:09.677Z,30.9
2022-12-29T12:26:11.119Z,31.1
2022-12-29T12:27:13.057Z,31.1
2022-12-29T12:28:10.856Z,31.1
2022-12-29T12:29:10.256Z,31.1
2022-12-29T12:30:04.327Z,31.1
2022-12-29T12:31:05.788Z,31.3
2022-12-29T12:32:09.450Z,31.3
2022-12-29T12:33:05.922Z,31.1
2022-12-29T12:34:06.234Z,31.1
2022-12-29T12:35:02.359Z,31.1
2022-12-29T12:36:20.962Z,31.3
2022-12-29T12:37:19.304Z,31.1
2022-12-29T12:38:17.089Z,31.1
2022-12-29T12:39:06.884Z,31.1
2022-12-29T12:40:20.805Z,31.1
2022-12-29T12:41:08.931Z,30.9
2022-12-29T12:42:13.963Z,30.9
2022-12-29T12:43:10.304Z,30.9
2022-12-29T12:44:11.735Z,30.9
2022-12-29T12:45:18.940Z,31.1
2022-12-29T12:46:16.810Z,30.9
2022-12-29T12:47:19.013Z,30.9
2022-12-29T12:48:15.219Z,30.9
2022-12-29T12:49:20.627Z,30.9
2022-12-29T12:50:14.773Z,30.9
2022-12-29T12:51:15.230Z,31.1
2022-12-29T12:52:09.832Z,31.1
2022-12-29T12:53:19.105Z,31.1
2022-12-29T12:54:18.075Z,31.1
2022-12-29T12:55:16.468Z,31.1
2022-12-29T12:56:19.411Z,31.1
2022-12-29T12:57:11.000Z,31.1
2022-12-29T12:58:12.032Z,30.9
2022-12-29T12:59:13.216Z,30.9
2022-12-29T13:00:08.142Z,31.1
2022-12-29T13:01:18.528Z,31.1
2022-12-29T13:02:11.553Z,31.1
2022-12-29T13:03:12.459Z,31.3
2022-12-29T13:04:20.817Z,31.5
2022-12-29T13:05:26.181Z,31.5
2022-12-29T13:06:15.610Z,31.6
2022-12-29T13:07:15.822Z,31.6
2022-12-29T13:08:19.128Z,31.8
2022-12-29T13:09:21.289Z,32.0
2022-12-29T13:10:20.828Z,32.0
2022-12-29T13:11:13.749Z,32.2
2022-12-29T13:12:15.017Z,32.2
2022-12-29T13:13:20.898Z,32.2
2022-12-29T13:14:16.521Z,32.0
2022-12-29T13:15:16.659Z,32.2
2022-12-29T13:16:14.295Z,32.4
2022-12-29T13:17:09.703Z,32.4
2022-12-29T13:18:12.063Z,32.4